sensor_id;sensor_type;location;lat;lon;timestamp;P1;durP1;ratioP1;P2;durP2;ratioP2
66946;SDS011;53853;51.982;5.928;2022-12-24T00:00:43;38.03;;;8.25;;
66946;SDS011;53853;51.982;5.928;2022-12-24T00:03:13;24.85;;;5.53;;
66946;SDS011;53853;51.982;5.928;2022-12-24T00:05:43;37.25;;;8.00;;
66946;SDS011;53853;51.982;5.928;2022-12-24T00:08:15;26.20;;;6.75;;
66946;SDS011;53853;51.982;5.928;2022-12-24T00:10:48;30.52;;;7.53;;
66946;SDS011;53853;51.982;5.928;2022-12-24T00:13:19;28.10;;;6.78;;
66946;SDS011;53853;51.982;5.928;2022-12-24T00:15:49;32.45;;;7.10;;
66946;SDS011;53853;51.982;5.928;2022-12-24T00:18:19;27.95;;;6.32;;
66946;SDS011;53853;51.982;5.928;2022-12-24T00:20:49;36.45;;;8.65;;
66946;SDS011;53853;51.982;5.928;2022-12-24T00:23:22;32.50;;;6.93;;
66946;SDS011;53853;51.982;5.928;2022-12-24T00:25:52;32.95;;;7.63;;
66946;SDS011;53853;51.982;5.928;2022-12-24T00:28:22;29.80;;;6.95;;
66946;SDS011;53853;51.982;5.928;2022-12-24T00:30:52;34.95;;;8.10;;
66946;SDS011;53853;51.982;5.928;2022-12-24T00:33:22;28.55;;;7.07;;
66946;SDS011;53853;51.982;5.928;2022-12-24T00:35:52;28.73;;;7.07;;
66946;SDS011;53853;51.982;5.928;2022-12-24T00:38:25;29.38;;;6.60;;
66946;SDS011;53853;51.982;5.928;2022-12-24T00:40:57;44.40;;;10.73;;
66946;SDS011;53853;51.982;5.928;2022-12-24T00:43:28;29.02;;;6.97;;
66946;SDS011;53853;51.982;5.928;2022-12-24T00:45:58;35.83;;;7.18;;
66946;SDS011;53853;51.982;5.928;2022-12-24T00:48:28;33.70;;;7.20;;
66946;SDS011;53853;51.982;5.928;2022-12-24T00:50:58;29.75;;;6.35;;
66946;SDS011;53853;51.982;5.928;2022-12-24T00:53:31;30.55;;;7.00;;
66946;SDS011;53853;51.982;5.928;2022-12-24T00:56:01;30.58;;;7.88;;
66946;SDS011;53853;51.982;5.928;2022-12-24T00:58:31;31.15;;;7.30;;
66946;SDS011;53853;51.982;5.928;2022-12-24T01:01:01;27.30;;;6.22;;
66946;SDS011;53853;51.982;5.928;2022-12-24T01:03:32;34.28;;;7.25;;
66946;SDS011;53853;51.982;5.928;2022-12-24T01:06:03;36.80;;;8.10;;
66946;SDS011;53853;51.982;5.928;2022-12-24T01:08:35;30.27;;;6.97;;
66946;SDS011;53853;51.982;5.928;2022-12-24T01:11:05;32.38;;;7.22;;
66946;SDS011;53853;51.982;5.928;2022-12-24T01:13:36;32.42;;;6.82;;
66946;SDS011;53853;51.982;5.928;2022-12-24T01:16:12;30.80;;;8.75;;
66946;SDS011;53853;51.982;5.928;2022-12-24T01:18:43;31.80;;;8.15;;
66946;SDS011;53853;51.982;5.928;2022-12-24T01:21:13;31.80;;;6.75;;
66946;SDS011;53853;51.982;5.928;2022-12-24T01:23:46;35.90;;;7.70;;
66946;SDS011;53853;51.982;5.928;2022-12-24T01:26:16;30.17;;;6.82;;
66946;SDS011;53853;51.982;5.928;2022-12-24T01:28:46;30.38;;;7.30;;
66946;SDS011;53853;51.982;5.928;2022-12-24T01:31:16;37.28;;;7.65;;
66946;SDS011;53853;51.982;5.928;2022-12-24T01:33:47;31.48;;;7.78;;
66946;SDS011;53853;51.982;5.928;2022-12-24T01:36:17;36.97;;;7.75;;
66946;SDS011;53853;51.982;5.928;2022-12-24T01:38:50;34.15;;;7.35;;
66946;SDS011;53853;51.982;5.928;2022-12-24T01:41:20;31.40;;;6.75;;
66946;SDS011;53853;51.982;5.928;2022-12-24T01:46:51;29.50;;;6.55;;
66946;SDS011;53853;51.982;5.928;2022-12-24T01:49:24;26.52;;;6.95;;
66946;SDS011;53853;51.982;5.928;2022-12-24T01:51:55;28.92;;;7.70;;
66946;SDS011;53853;51.982;5.928;2022-12-24T01:54:32;31.30;;;7.38;;
66946;SDS011;53853;51.982;5.928;2022-12-24T01:57:06;29.67;;;7.38;;
66946;SDS011;53853;51.982;5.928;2022-12-24T01:59:41;38.67;;;8.13;;
66946;SDS011;53853;51.982;5.928;2022-12-24T02:02:13;50.65;;;9.55;;
66946;SDS011;53853;51.982;5.928;2022-12-24T02:04:45;33.92;;;8.05;;
66946;SDS011;53853;51.982;5.928;2022-12-24T02:07:23;44.25;;;8.38;;
66946;SDS011;53853;51.982;5.928;2022-12-24T02:09:57;37.97;;;6.95;;
66946;SDS011;53853;51.982;5.928;2022-12-24T02:12:29;33.72;;;8.05;;
66946;SDS011;53853;51.982;5.928;2022-12-24T02:15:03;32.80;;;8.68;;
66946;SDS011;53853;51.982;5.928;2022-12-24T02:17:36;26.92;;;6.50;;
66946;SDS011;53853;51.982;5.928;2022-12-24T02:20:30;34.78;;;7.43;;
66946;SDS011;53853;51.982;5.928;2022-12-24T02:23:21;25.25;;;6.40;;
66946;SDS011;53853;51.982;5.928;2022-12-24T02:26:13;34.00;;;7.07;;
66946;SDS011;53853;51.982;5.928;2022-12-24T02:28:58;32.25;;;7.65;;
66946;SDS011;53853;51.982;5.928;2022-12-24T02:31:50;23.27;;;7.07;;
66946;SDS011;53853;51.982;5.928;2022-12-24T02:34:27;30.67;;;7.88;;
66946;SDS011;53853;51.982;5.928;2022-12-24T02:39:35;24.70;;;6.43;;
66946;SDS011;53853;51.982;5.928;2022-12-24T02:42:08;27.40;;;7.20;;
66946;SDS011;53853;51.982;5.928;2022-12-24T02:44:44;30.70;;;7.97;;
66946;SDS011;53853;51.982;5.928;2022-12-24T02:47:20;36.28;;;8.45;;
66946;SDS011;53853;51.982;5.928;2022-12-24T02:49:53;28.92;;;7.32;;
66946;SDS011;53853;51.982;5.928;2022-12-24T02:52:27;26.90;;;6.35;;
66946;SDS011;53853;51.982;5.928;2022-12-24T02:54:59;27.40;;;6.90;;
66946;SDS011;53853;51.982;5.928;2022-12-24T02:57:40;20.60;;;5.55;;
66946;SDS011;53853;51.982;5.928;2022-12-24T03:00:22;30.25;;;6.50;;
66946;SDS011;53853;51.982;5.928;2022-12-24T03:03:00;20.75;;;6.50;;
66946;SDS011;53853;51.982;5.928;2022-12-24T03:05:47;30.90;;;7.53;;
66946;SDS011;53853;51.982;5.928;2022-12-24T03:08:21;36.80;;;7.60;;
66946;SDS011;53853;51.982;5.928;2022-12-24T03:10:59;29.08;;;8.13;;
66946;SDS011;53853;51.982;5.928;2022-12-24T03:13:34;28.20;;;7.88;;
66946;SDS011;53853;51.982;5.928;2022-12-24T03:16:04;32.80;;;6.53;;
66946;SDS011;53853;51.982;5.928;2022-12-24T03:18:41;26.30;;;6.13;;
66946;SDS011;53853;51.982;5.928;2022-12-24T03:21:15;27.98;;;5.75;;
66946;SDS011;53853;51.982;5.928;2022-12-24T03:23:48;34.78;;;5.97;;
66946;SDS011;53853;51.982;5.928;2022-12-24T03:26:18;24.45;;;5.35;;
66946;SDS011;53853;51.982;5.928;2022-12-24T03:28:49;23.83;;;6.07;;
66946;SDS011;53853;51.982;5.928;2022-12-24T03:31:19;28.95;;;6.65;;
66946;SDS011;53853;51.982;5.928;2022-12-24T03:33:52;21.52;;;6.30;;
66946;SDS011;53853;51.982;5.928;2022-12-24T03:36:22;26.63;;;6.25;;
66946;SDS011;53853;51.982;5.928;2022-12-24T03:38:55;30.33;;;5.82;;
66946;SDS011;53853;51.982;5.928;2022-12-24T03:41:25;31.95;;;8.77;;
66946;SDS011;53853;51.982;5.928;2022-12-24T03:43:55;30.73;;;7.40;;
66946;SDS011;53853;51.982;5.928;2022-12-24T03:46:25;36.78;;;7.20;;
66946;SDS011;53853;51.982;5.928;2022-12-24T03:48:58;29.80;;;6.25;;
66946;SDS011;53853;51.982;5.928;2022-12-24T03:51:28;27.88;;;6.75;;
66946;SDS011;53853;51.982;5.928;2022-12-24T03:53:58;29.30;;;6.72;;
66946;SDS011;53853;51.982;5.928;2022-12-24T03:56:29;25.08;;;7.20;;
66946;SDS011;53853;51.982;5.928;2022-12-24T03:58:58;23.23;;;6.78;;
66946;SDS011;53853;51.982;5.928;2022-12-24T04:01:28;29.95;;;7.25;;
66946;SDS011;53853;51.982;5.928;2022-12-24T04:04:01;39.67;;;8.20;;
66946;SDS011;53853;51.982;5.928;2022-12-24T04:06:31;35.20;;;7.40;;
66946;SDS011;53853;51.982;5.928;2022-12-24T04:09:01;17.08;;;5.68;;
66946;SDS011;53853;51.982;5.928;2022-12-24T04:11:32;37.20;;;8.20;;
66946;SDS011;53853;51.982;5.928;2022-12-24T04:14:02;26.00;;;5.78;;
66946;SDS011;53853;51.982;5.928;2022-12-24T04:16:32;32.33;;;7.40;;
66946;SDS011;53853;51.982;5.928;2022-12-24T04:19:04;30.25;;;7.85;;
66946;SDS011;53853;51.982;5.928;2022-12-24T04:21:34;23.67;;;7.18;;
66946;SDS011;53853;51.982;5.928;2022-12-24T04:24:04;35.13;;;8.18;;
66946;SDS011;53853;51.982;5.928;2022-12-24T04:26:34;32.42;;;6.93;;
66946;SDS011;53853;51.982;5.928;2022-12-24T04:29:04;35.08;;;7.65;;
66946;SDS011;53853;51.982;5.928;2022-12-24T04:31:34;35.92;;;8.80;;
66946;SDS011;53853;51.982;5.928;2022-12-24T04:34:07;32.08;;;9.00;;
66946;SDS011;53853;51.982;5.928;2022-12-24T04:36:37;30.42;;;9.15;;
66946;SDS011;53853;51.982;5.928;2022-12-24T04:39:06;36.83;;;8.02;;
66946;SDS011;53853;51.982;5.928;2022-12-24T04:41:36;31.13;;;7.95;;
66946;SDS011;53853;51.982;5.928;2022-12-24T04:44:07;29.52;;;8.23;;
66946;SDS011;53853;51.982;5.928;2022-12-24T04:46:38;25.63;;;8.13;;
66946;SDS011;53853;51.982;5.928;2022-12-24T04:49:11;31.80;;;8.98;;
66946;SDS011;53853;51.982;5.928;2022-12-24T04:51:41;34.15;;;8.45;;
66946;SDS011;53853;51.982;5.928;2022-12-24T04:54:11;29.15;;;6.72;;
66946;SDS011;53853;51.982;5.928;2022-12-24T04:56:41;23.80;;;6.97;;
66946;SDS011;53853;51.982;5.928;2022-12-24T04:59:11;28.40;;;8.30;;
66946;SDS011;53853;51.982;5.928;2022-12-24T05:01:41;25.52;;;7.80;;
66946;SDS011;53853;51.982;5.928;2022-12-24T05:04:13;29.27;;;7.40;;
66946;SDS011;53853;51.982;5.928;2022-12-24T05:06:43;33.22;;;8.63;;
66946;SDS011;53853;51.982;5.928;2022-12-24T05:09:13;31.38;;;8.82;;
66946;SDS011;53853;51.982;5.928;2022-12-24T05:11:43;31.90;;;8.07;;
66946;SDS011;53853;51.982;5.928;2022-12-24T05:14:12;32.13;;;8.50;;
66946;SDS011;53853;51.982;5.928;2022-12-24T05:16:42;28.17;;;8.10;;
66946;SDS011;53853;51.982;5.928;2022-12-24T05:19:15;26.65;;;7.40;;
66946;SDS011;53853;51.982;5.928;2022-12-24T05:21:45;34.08;;;8.13;;
66946;SDS011;53853;51.982;5.928;2022-12-24T05:24:35;30.83;;;8.35;;
66946;SDS011;53853;51.982;5.928;2022-12-24T05:27:17;38.63;;;9.90;;
66946;SDS011;53853;51.982;5.928;2022-12-24T05:29:47;35.47;;;11.13;;
66946;SDS011;53853;51.982;5.928;2022-12-24T05:32:17;37.30;;;8.23;;
66946;SDS011;53853;51.982;5.928;2022-12-24T05:34:49;39.25;;;8.75;;
66946;SDS011;53853;51.982;5.928;2022-12-24T05:37:19;33.97;;;7.93;;
66946;SDS011;53853;51.982;5.928;2022-12-24T05:39:49;32.47;;;7.65;;
66946;SDS011;53853;51.982;5.928;2022-12-24T05:42:19;35.65;;;8.52;;
66946;SDS011;53853;51.982;5.928;2022-12-24T05:44:49;28.88;;;8.60;;
66946;SDS011;53853;51.982;5.928;2022-12-24T05:47:19;42.15;;;8.25;;
66946;SDS011;53853;51.982;5.928;2022-12-24T05:49:51;26.75;;;6.85;;
66946;SDS011;53853;51.982;5.928;2022-12-24T05:52:21;26.55;;;7.43;;
66946;SDS011;53853;51.982;5.928;2022-12-24T05:54:51;40.03;;;7.68;;
66946;SDS011;53853;51.982;5.928;2022-12-24T05:57:21;27.15;;;7.88;;
66946;SDS011;53853;51.982;5.928;2022-12-24T05:59:50;32.35;;;7.85;;
66946;SDS011;53853;51.982;5.928;2022-12-24T06:02:20;37.92;;;8.63;;
66946;SDS011;53853;51.982;5.928;2022-12-24T06:04:53;26.73;;;7.60;;
66946;SDS011;53853;51.982;5.928;2022-12-24T06:07:23;32.97;;;8.95;;
66946;SDS011;53853;51.982;5.928;2022-12-24T06:09:53;35.05;;;8.00;;
66946;SDS011;53853;51.982;5.928;2022-12-24T06:12:23;36.05;;;9.32;;
66946;SDS011;53853;51.982;5.928;2022-12-24T06:14:53;31.17;;;7.70;;
66946;SDS011;53853;51.982;5.928;2022-12-24T06:17:23;34.63;;;7.53;;
66946;SDS011;53853;51.982;5.928;2022-12-24T06:19:55;33.70;;;7.97;;
66946;SDS011;53853;51.982;5.928;2022-12-24T06:22:25;31.42;;;8.60;;
66946;SDS011;53853;51.982;5.928;2022-12-24T06:24:55;42.85;;;8.80;;
66946;SDS011;53853;51.982;5.928;2022-12-24T06:27:25;31.80;;;8.27;;
66946;SDS011;53853;51.982;5.928;2022-12-24T06:29:55;37.28;;;8.93;;
66946;SDS011;53853;51.982;5.928;2022-12-24T06:32:25;26.38;;;6.90;;
66946;SDS011;53853;51.982;5.928;2022-12-24T06:34:57;24.92;;;8.32;;
66946;SDS011;53853;51.982;5.928;2022-12-24T06:37:27;39.83;;;8.95;;
66946;SDS011;53853;51.982;5.928;2022-12-24T06:39:57;27.27;;;7.72;;
66946;SDS011;53853;51.982;5.928;2022-12-24T06:42:27;34.50;;;6.93;;
66946;SDS011;53853;51.982;5.928;2022-12-24T06:44:57;37.00;;;8.80;;
66946;SDS011;53853;51.982;5.928;2022-12-24T06:47:27;39.70;;;8.48;;
66946;SDS011;53853;51.982;5.928;2022-12-24T06:50:00;30.75;;;7.93;;
66946;SDS011;53853;51.982;5.928;2022-12-24T06:52:29;34.83;;;9.00;;
66946;SDS011;53853;51.982;5.928;2022-12-24T06:54:59;28.75;;;8.00;;
66946;SDS011;53853;51.982;5.928;2022-12-24T06:57:29;26.92;;;7.53;;
66946;SDS011;53853;51.982;5.928;2022-12-24T06:59:59;32.60;;;8.82;;
66946;SDS011;53853;51.982;5.928;2022-12-24T07:02:29;31.25;;;8.63;;
66946;SDS011;53853;51.982;5.928;2022-12-24T07:05:01;32.95;;;9.10;;
66946;SDS011;53853;51.982;5.928;2022-12-24T07:07:32;37.65;;;8.13;;
66946;SDS011;53853;51.982;5.928;2022-12-24T07:10:03;30.52;;;9.50;;
66946;SDS011;53853;51.982;5.928;2022-12-24T07:12:34;27.33;;;8.98;;
66946;SDS011;53853;51.982;5.928;2022-12-24T07:15:04;29.08;;;9.60;;
66946;SDS011;53853;51.982;5.928;2022-12-24T07:17:35;28.30;;;8.45;;
66946;SDS011;53853;51.982;5.928;2022-12-24T07:20:09;35.95;;;9.73;;
66946;SDS011;53853;51.982;5.928;2022-12-24T07:22:42;27.77;;;8.10;;
66946;SDS011;53853;51.982;5.928;2022-12-24T07:25:12;30.08;;;9.07;;
66946;SDS011;53853;51.982;5.928;2022-12-24T07:27:42;45.33;;;10.25;;
66946;SDS011;53853;51.982;5.928;2022-12-24T07:30:12;36.03;;;8.23;;
66946;SDS011;53853;51.982;5.928;2022-12-24T07:32:42;26.50;;;7.97;;
66946;SDS011;53853;51.982;5.928;2022-12-24T07:35:14;36.08;;;10.70;;
66946;SDS011;53853;51.982;5.928;2022-12-24T07:37:44;43.20;;;10.70;;
66946;SDS011;53853;51.982;5.928;2022-12-24T07:40:14;34.45;;;8.60;;
66946;SDS011;53853;51.982;5.928;2022-12-24T07:42:45;32.90;;;8.70;;
66946;SDS011;53853;51.982;5.928;2022-12-24T07:45:14;35.22;;;9.27;;
66946;SDS011;53853;51.982;5.928;2022-12-24T07:47:44;29.50;;;9.43;;
66946;SDS011;53853;51.982;5.928;2022-12-24T07:50:17;27.00;;;7.28;;
66946;SDS011;53853;51.982;5.928;2022-12-24T07:52:47;29.55;;;7.95;;
66946;SDS011;53853;51.982;5.928;2022-12-24T07:55:17;28.35;;;8.63;;
66946;SDS011;53853;51.982;5.928;2022-12-24T07:57:47;35.20;;;9.45;;
66946;SDS011;53853;51.982;5.928;2022-12-24T08:00:17;30.48;;;10.23;;
66946;SDS011;53853;51.982;5.928;2022-12-24T08:02:47;34.80;;;7.88;;
66946;SDS011;53853;51.982;5.928;2022-12-24T08:05:20;37.50;;;8.05;;
66946;SDS011;53853;51.982;5.928;2022-12-24T08:07:50;26.98;;;7.95;;
66946;SDS011;53853;51.982;5.928;2022-12-24T08:10:20;31.20;;;6.90;;
66946;SDS011;53853;51.982;5.928;2022-12-24T08:12:50;36.40;;;8.38;;
66946;SDS011;53853;51.982;5.928;2022-12-24T08:15:20;22.15;;;7.65;;
66946;SDS011;53853;51.982;5.928;2022-12-24T08:17:50;30.30;;;9.02;;
66946;SDS011;53853;51.982;5.928;2022-12-24T08:20:22;29.60;;;8.30;;
66946;SDS011;53853;51.982;5.928;2022-12-24T08:22:52;26.90;;;8.20;;
66946;SDS011;53853;51.982;5.928;2022-12-24T08:25:22;32.70;;;7.45;;
66946;SDS011;53853;51.982;5.928;2022-12-24T08:27:52;33.47;;;8.30;;
66946;SDS011;53853;51.982;5.928;2022-12-24T08:30:22;24.52;;;6.68;;
66946;SDS011;53853;51.982;5.928;2022-12-24T08:32:52;26.33;;;6.35;;
66946;SDS011;53853;51.982;5.928;2022-12-24T08:35:24;36.38;;;8.82;;
66946;SDS011;53853;51.982;5.928;2022-12-24T08:37:54;32.10;;;7.78;;
66946;SDS011;53853;51.982;5.928;2022-12-24T08:40:24;27.63;;;7.70;;
66946;SDS011;53853;51.982;5.928;2022-12-24T08:42:54;38.55;;;9.13;;
66946;SDS011;53853;51.982;5.928;2022-12-24T08:45:24;30.88;;;8.50;;
66946;SDS011;53853;51.982;5.928;2022-12-24T08:47:54;34.50;;;8.48;;
66946;SDS011;53853;51.982;5.928;2022-12-24T08:50:28;39.67;;;9.32;;
66946;SDS011;53853;51.982;5.928;2022-12-24T08:52:58;35.88;;;9.38;;
66946;SDS011;53853;51.982;5.928;2022-12-24T08:55:28;34.50;;;8.68;;
66946;SDS011;53853;51.982;5.928;2022-12-24T08:57:58;35.03;;;7.90;;
66946;SDS011;53853;51.982;5.928;2022-12-24T09:00:28;20.95;;;6.75;;
66946;SDS011;53853;51.982;5.928;2022-12-24T09:02:58;26.95;;;7.57;;
66946;SDS011;53853;51.982;5.928;2022-12-24T09:05:31;25.85;;;7.40;;
66946;SDS011;53853;51.982;5.928;2022-12-24T09:08:01;29.38;;;7.40;;
66946;SDS011;53853;51.982;5.928;2022-12-24T09:10:31;30.88;;;8.30;;
66946;SDS011;53853;51.982;5.928;2022-12-24T09:13:01;32.83;;;8.18;;
66946;SDS011;53853;51.982;5.928;2022-12-24T09:15:31;36.30;;;7.38;;
66946;SDS011;53853;51.982;5.928;2022-12-24T09:18:01;39.72;;;9.60;;
66946;SDS011;53853;51.982;5.928;2022-12-24T09:20:34;33.85;;;7.50;;
66946;SDS011;53853;51.982;5.928;2022-12-24T09:23:04;27.98;;;8.10;;
66946;SDS011;53853;51.982;5.928;2022-12-24T09:25:33;30.02;;;8.68;;
66946;SDS011;53853;51.982;5.928;2022-12-24T09:28:08;26.80;;;8.52;;
66946;SDS011;53853;51.982;5.928;2022-12-24T09:30:38;35.05;;;9.75;;
66946;SDS011;53853;51.982;5.928;2022-12-24T09:33:08;23.13;;;8.27;;
66946;SDS011;53853;51.982;5.928;2022-12-24T09:35:41;39.58;;;8.57;;
66946;SDS011;53853;51.982;5.928;2022-12-24T09:38:10;23.65;;;7.70;;
66946;SDS011;53853;51.982;5.928;2022-12-24T09:40:40;26.25;;;7.82;;
66946;SDS011;53853;51.982;5.928;2022-12-24T09:43:11;35.95;;;8.85;;
66946;SDS011;53853;51.982;5.928;2022-12-24T09:48:18;37.88;;;11.52;;
66946;SDS011;53853;51.982;5.928;2022-12-24T09:50:56;38.30;;;8.95;;
66946;SDS011;53853;51.982;5.928;2022-12-24T09:53:37;33.10;;;9.18;;
66946;SDS011;53853;51.982;5.928;2022-12-24T09:56:13;32.05;;;9.70;;
66946;SDS011;53853;51.982;5.928;2022-12-24T09:58:47;38.67;;;9.02;;
66946;SDS011;53853;51.982;5.928;2022-12-24T10:01:20;36.22;;;9.82;;
66946;SDS011;53853;51.982;5.928;2022-12-24T10:03:50;34.72;;;8.82;;
66946;SDS011;53853;51.982;5.928;2022-12-24T10:06:23;26.30;;;8.50;;
66946;SDS011;53853;51.982;5.928;2022-12-24T10:09:02;35.25;;;9.25;;
66946;SDS011;53853;51.982;5.928;2022-12-24T10:11:41;36.55;;;7.70;;
66946;SDS011;53853;51.982;5.928;2022-12-24T10:14:21;29.42;;;8.45;;
66946;SDS011;53853;51.982;5.928;2022-12-24T10:17:05;26.60;;;8.30;;
66946;SDS011;53853;51.982;5.928;2022-12-24T10:19:48;32.55;;;9.63;;
66946;SDS011;53853;51.982;5.928;2022-12-24T10:22:28;30.30;;;8.60;;
66946;SDS011;53853;51.982;5.928;2022-12-24T10:25:03;25.75;;;6.97;;
66946;SDS011;53853;51.982;5.928;2022-12-24T10:27:40;34.63;;;8.27;;
66946;SDS011;53853;51.982;5.928;2022-12-24T10:30:12;30.42;;;8.63;;
66946;SDS011;53853;51.982;5.928;2022-12-24T10:32:44;28.63;;;7.25;;
66946;SDS011;53853;51.982;5.928;2022-12-24T10:35:18;31.98;;;9.45;;
66946;SDS011;53853;51.982;5.928;2022-12-24T10:37:53;31.50;;;8.38;;
66946;SDS011;53853;51.982;5.928;2022-12-24T10:40:25;34.63;;;8.95;;
66946;SDS011;53853;51.982;5.928;2022-12-24T10:42:59;41.30;;;8.77;;
66946;SDS011;53853;51.982;5.928;2022-12-24T10:45:30;32.92;;;9.05;;
66946;SDS011;53853;51.982;5.928;2022-12-24T10:48:08;35.00;;;9.82;;
66946;SDS011;53853;51.982;5.928;2022-12-24T10:50:48;33.40;;;8.60;;
66946;SDS011;53853;51.982;5.928;2022-12-24T10:53:27;33.92;;;8.57;;
66946;SDS011;53853;51.982;5.928;2022-12-24T10:56:04;37.83;;;8.98;;
66946;SDS011;53853;51.982;5.928;2022-12-24T10:58:40;25.90;;;7.70;;
66946;SDS011;53853;51.982;5.928;2022-12-24T11:01:12;31.83;;;8.20;;
66946;SDS011;53853;51.982;5.928;2022-12-24T11:03:42;33.60;;;8.45;;
66946;SDS011;53853;51.982;5.928;2022-12-24T11:06:13;27.77;;;6.93;;
66946;SDS011;53853;51.982;5.928;2022-12-24T11:08:49;27.23;;;7.82;;
66946;SDS011;53853;51.982;5.928;2022-12-24T11:11:19;32.20;;;7.57;;
66946;SDS011;53853;51.982;5.928;2022-12-24T11:13:52;34.70;;;8.48;;
66946;SDS011;53853;51.982;5.928;2022-12-24T11:18:56;34.80;;;8.30;;
66946;SDS011;53853;51.982;5.928;2022-12-24T11:21:28;25.17;;;6.20;;
66946;SDS011;53853;51.982;5.928;2022-12-24T11:24:06;31.88;;;8.80;;
66946;SDS011;53853;51.982;5.928;2022-12-24T11:26:49;30.27;;;7.78;;
66946;SDS011;53853;51.982;5.928;2022-12-24T11:29:19;27.33;;;7.55;;
66946;SDS011;53853;51.982;5.928;2022-12-24T11:31:51;37.17;;;7.68;;
66946;SDS011;53853;51.982;5.928;2022-12-24T11:34:44;27.60;;;6.70;;
66946;SDS011;53853;51.982;5.928;2022-12-24T11:37:15;29.90;;;6.97;;
66946;SDS011;53853;51.982;5.928;2022-12-24T11:39:51;26.40;;;6.83;;
66946;SDS011;53853;51.982;5.928;2022-12-24T11:42:28;29.65;;;7.70;;
66946;SDS011;53853;51.982;5.928;2022-12-24T11:45:02;28.25;;;6.82;;
66946;SDS011;53853;51.982;5.928;2022-12-24T11:47:35;33.50;;;7.35;;
66946;SDS011;53853;51.982;5.928;2022-12-24T11:50:17;28.08;;;6.85;;
66946;SDS011;53853;51.982;5.928;2022-12-24T11:52:54;27.70;;;6.20;;
66946;SDS011;53853;51.982;5.928;2022-12-24T11:55:35;33.63;;;8.00;;
66946;SDS011;53853;51.982;5.928;2022-12-24T11:58:15;27.73;;;7.13;;
66946;SDS011;53853;51.982;5.928;2022-12-24T12:00:52;26.50;;;6.40;;
66946;SDS011;53853;51.982;5.928;2022-12-24T12:03:31;28.67;;;7.75;;
66946;SDS011;53853;51.982;5.928;2022-12-24T12:06:14;30.40;;;6.20;;
66946;SDS011;53853;51.982;5.928;2022-12-24T12:08:55;21.98;;;6.25;;
66946;SDS011;53853;51.982;5.928;2022-12-24T12:11:31;26.33;;;6.15;;
66946;SDS011;53853;51.982;5.928;2022-12-24T12:14:03;22.63;;;6.68;;
66946;SDS011;53853;51.982;5.928;2022-12-24T12:16:38;31.02;;;6.22;;
66946;SDS011;53853;51.982;5.928;2022-12-24T12:19:36;29.20;;;6.90;;
66946;SDS011;53853;51.982;5.928;2022-12-24T12:22:15;28.98;;;6.28;;
66946;SDS011;53853;51.982;5.928;2022-12-24T12:24:54;29.42;;;6.40;;
66946;SDS011;53853;51.982;5.928;2022-12-24T12:27:29;29.50;;;7.43;;
66946;SDS011;53853;51.982;5.928;2022-12-24T12:30:04;26.85;;;7.30;;
66946;SDS011;53853;51.982;5.928;2022-12-24T12:32:41;25.40;;;7.22;;
66946;SDS011;53853;51.982;5.928;2022-12-24T12:35:19;26.60;;;6.95;;
66946;SDS011;53853;51.982;5.928;2022-12-24T12:37:54;34.55;;;8.07;;
66946;SDS011;53853;51.982;5.928;2022-12-24T12:43:34;22.75;;;6.70;;
66946;SDS011;53853;51.982;5.928;2022-12-24T12:46:17;18.92;;;6.03;;
66946;SDS011;53853;51.982;5.928;2022-12-24T12:49:09;21.20;;;6.15;;
66946;SDS011;53853;51.982;5.928;2022-12-24T12:51:48;23.45;;;6.20;;
66946;SDS011;53853;51.982;5.928;2022-12-24T12:54:34;30.90;;;6.85;;
66946;SDS011;53853;51.982;5.928;2022-12-24T12:57:15;25.42;;;6.45;;
66946;SDS011;53853;51.982;5.928;2022-12-24T12:59:52;19.35;;;6.03;;
66946;SDS011;53853;51.982;5.928;2022-12-24T13:02:32;22.00;;;5.78;;
66946;SDS011;53853;51.982;5.928;2022-12-24T13:08:39;24.33;;;6.10;;
66946;SDS011;53853;51.982;5.928;2022-12-24T13:11:31;25.10;;;5.78;;
66946;SDS011;53853;51.982;5.928;2022-12-24T13:14:22;29.75;;;7.07;;
66946;SDS011;53853;51.982;5.928;2022-12-24T13:20:16;27.25;;;6.10;;
66946;SDS011;53853;51.982;5.928;2022-12-24T13:22:50;19.42;;;5.57;;
66946;SDS011;53853;51.982;5.928;2022-12-24T13:25:26;24.58;;;7.05;;
66946;SDS011;53853;51.982;5.928;2022-12-24T13:28:13;21.75;;;5.63;;
66946;SDS011;53853;51.982;5.928;2022-12-24T13:30:44;18.98;;;4.43;;
66946;SDS011;53853;51.982;5.928;2022-12-24T13:33:44;22.15;;;5.20;;
66946;SDS011;53853;51.982;5.928;2022-12-24T13:36:18;21.10;;;5.97;;
66946;SDS011;53853;51.982;5.928;2022-12-24T13:38:49;22.25;;;5.53;;
66946;SDS011;53853;51.982;5.928;2022-12-24T13:41:37;24.02;;;5.63;;
66946;SDS011;53853;51.982;5.928;2022-12-24T13:44:26;20.67;;;5.78;;
66946;SDS011;53853;51.982;5.928;2022-12-24T13:49:51;21.63;;;5.80;;
66946;SDS011;53853;51.982;5.928;2022-12-24T13:52:27;33.92;;;6.13;;
66946;SDS011;53853;51.982;5.928;2022-12-24T13:55:05;19.02;;;4.88;;
66946;SDS011;53853;51.982;5.928;2022-12-24T13:57:44;23.45;;;6.38;;
66946;SDS011;53853;51.982;5.928;2022-12-24T14:00:32;20.23;;;5.30;;
66946;SDS011;53853;51.982;5.928;2022-12-24T14:03:18;19.75;;;4.88;;
66946;SDS011;53853;51.982;5.928;2022-12-24T14:05:57;21.50;;;5.75;;
66946;SDS011;53853;51.982;5.928;2022-12-24T14:08:37;16.00;;;5.18;;
66946;SDS011;53853;51.982;5.928;2022-12-24T14:11:10;14.27;;;4.47;;
66946;SDS011;53853;51.982;5.928;2022-12-24T14:16:41;17.08;;;5.28;;
66946;SDS011;53853;51.982;5.928;2022-12-24T14:19:15;14.80;;;4.50;;
66946;SDS011;53853;51.982;5.928;2022-12-24T14:21:50;16.10;;;4.55;;
66946;SDS011;53853;51.982;5.928;2022-12-24T14:24:29;18.33;;;5.32;;
66946;SDS011;53853;51.982;5.928;2022-12-24T14:27:05;17.73;;;6.13;;
66946;SDS011;53853;51.982;5.928;2022-12-24T14:29:44;13.00;;;4.15;;
66946;SDS011;53853;51.982;5.928;2022-12-24T14:32:18;17.27;;;6.47;;
66946;SDS011;53853;51.982;5.928;2022-12-24T14:37:37;19.60;;;4.70;;
66946;SDS011;53853;51.982;5.928;2022-12-24T14:40:12;22.33;;;6.60;;
66946;SDS011;53853;51.982;5.928;2022-12-24T14:42:46;17.67;;;4.80;;
66946;SDS011;53853;51.982;5.928;2022-12-24T14:45:26;17.27;;;5.00;;
66946;SDS011;53853;51.982;5.928;2022-12-24T14:48:03;22.83;;;5.60;;
66946;SDS011;53853;51.982;5.928;2022-12-24T14:50:49;22.67;;;5.70;;
66946;SDS011;53853;51.982;5.928;2022-12-24T14:53:29;18.73;;;4.75;;
66946;SDS011;53853;51.982;5.928;2022-12-24T14:56:17;19.23;;;6.03;;
66946;SDS011;53853;51.982;5.928;2022-12-24T14:58:48;24.27;;;5.68;;
66946;SDS011;53853;51.982;5.928;2022-12-24T15:01:19;21.65;;;5.93;;
66946;SDS011;53853;51.982;5.928;2022-12-24T15:04:02;23.90;;;6.65;;
66946;SDS011;53853;51.982;5.928;2022-12-24T15:06:42;24.98;;;6.32;;
66946;SDS011;53853;51.982;5.928;2022-12-24T15:09:17;20.58;;;5.13;;
66946;SDS011;53853;51.982;5.928;2022-12-24T15:11:52;21.63;;;6.40;;
66946;SDS011;53853;51.982;5.928;2022-12-24T15:14:25;14.68;;;5.78;;
66946;SDS011;53853;51.982;5.928;2022-12-24T15:16:59;31.08;;;7.65;;
66946;SDS011;53853;51.982;5.928;2022-12-24T15:22:03;19.10;;;7.22;;
66946;SDS011;53853;51.982;5.928;2022-12-24T15:27:15;26.65;;;7.25;;
66946;SDS011;53853;51.982;5.928;2022-12-24T15:29:47;30.48;;;8.15;;
66946;SDS011;53853;51.982;5.928;2022-12-24T15:32:19;26.00;;;7.40;;
66946;SDS011;53853;51.982;5.928;2022-12-24T15:34:51;35.33;;;9.13;;
66946;SDS011;53853;51.982;5.928;2022-12-24T15:37:22;31.45;;;7.53;;
66946;SDS011;53853;51.982;5.928;2022-12-24T15:39:55;20.98;;;6.18;;
66946;SDS011;53853;51.982;5.928;2022-12-24T15:42:34;18.98;;;6.78;;
66946;SDS011;53853;51.982;5.928;2022-12-24T15:45:11;17.83;;;5.40;;